Time;durP1;ratioP1;P1;durP2;ratioP2;P2;SDS_P1;SDS_P2;PMS_P1;PMS_P2;Temp;Humidity;BMP_temperature;BMP_pressure;BME280_temperature;BME280_humidity;BME280_pressure;Samples;Min_cycle;Max_cycle;Signal;HPM_P1;HPM_P2
2022/08/07 00:01:16;;;;;;;2.43;2.20;;;;;;;13.09;100.00;97775.94;4938194;28;20814;-68
2022/08/07 00:04:06;;;;;;;2.40;2.30;;;;;;;13.05;100.00;97777.31;4983103;28;20208;-67
2022/08/07 00:06:36;;;;;;;2.50;2.40;;;;;;;12.91;100.00;97769.16;4986470;28;20228;-67
2022/08/07 00:09:19;;;;;;;2.17;2.07;;;;;;;12.91;100.00;97763.84;4985661;28;20469;-67
2022/08/07 00:11:49;;;;;;;2.63;2.43;;;;;;;13.01;100.00;97761.72;4970773;28;20213;-68
2022/08/07 00:14:29;;;;;;;2.23;2.10;;;;;;;13.03;100.00;97774.84;4981388;28;20454;-66
2022/08/07 00:16:59;;;;;;;2.40;2.30;;;;;;;13.01;100.00;97758.25;4937596;28;20213;-67
2022/08/07 00:19:30;;;;;;;2.43;2.33;;;;;;;13.09;100.00;97762.66;4986634;28;20228;-68
2022/08/07 00:22:18;;;;;;;2.23;2.10;;;;;;;12.90;100.00;97766.69;4983126;28;20228;-68
2022/08/07 00:25:04;;;;;;;1.97;1.87;;;;;;;12.98;100.00;97780.69;4988770;28;20677;-65
2022/08/07 00:27:33;;;;;;;1.80;1.70;;;;;;;12.85;100.00;97772.56;4963551;28;20231;-68
2022/08/07 00:30:21;;;;;;;2.40;2.20;;;;;;;12.67;100.00;97771.06;4941079;28;20761;-68
2022/08/07 00:32:55;;;;;;;1.97;1.97;;;;;;;12.72;100.00;97768.72;4984359;28;20300;-65
2022/08/07 00:35:26;;;;;;;2.37;2.27;;;;;;;12.60;100.00;97767.50;4982257;28;20237;-66
2022/08/07 00:37:57;;;;;;;2.57;2.37;;;;;;;12.67;100.00;97765.75;4991500;28;20200;-65
2022/08/07 00:40:25;;;;;;;1.97;1.97;;;;;;;12.66;100.00;97760.63;4988989;28;20224;-67
2022/08/07 00:43:08;;;;;;;2.10;2.00;;;;;;;12.62;100.00;97757.50;4977231;28;20630;-65
2022/08/07 00:46:00;;;;;;;1.80;1.80;;;;;;;12.63;100.00;97753.03;4943350;28;20228;-66
2022/08/07 00:48:29;;;;;;;2.20;2.10;;;;;;;12.58;100.00;97750.91;4982592;28;20509;-67
2022/08/07 00:51:01;;;;;;;2.30;2.20;;;;;;;12.62;100.00;97754.84;4972194;28;20295;-66
2022/08/07 00:53:29;;;;;;;2.40;2.20;;;;;;;12.58;100.00;97759.72;4987622;28;20486;-68
2022/08/07 00:56:16;;;;;;;2.97;2.10;;;;;;;12.62;100.00;97756.69;4984223;28;20471;-68
2022/08/07 00:58:45;;;;;;;2.63;2.53;;;;;;;12.57;100.00;97757.25;4973939;28;20654;-67
2022/08/07 01:01:14;;;;;;;2.03;2.00;;;;;;;12.42;100.00;97754.56;4936853;28;20293;-67
2022/08/07 01:03:43;;;;;;;2.13;2.03;;;;;;;12.38;100.00;97748.81;4981921;28;20260;-67
2022/08/07 01:06:30;;;;;;;2.37;2.27;;;;;;;12.35;100.00;97745.69;4967502;28;20613;-67
2022/08/07 01:08:59;;;;;;;2.50;2.40;;;;;;;12.36;100.00;97753.47;4987475;28;20205;-67
2022/08/07 01:11:28;;;;;;;2.30;2.07;;;;;;;12.19;100.00;97747.50;4987338;28;20236;-67
2022/08/07 01:14:17;;;;;;;2.30;2.20;;;;;;;12.37;100.00;97744.50;4965314;28;20220;-67
2022/08/07 01:16:55;;;;;;;2.23;2.10;;;;;;;12.30;100.00;97746.22;4940961;28;20224;-65
2022/08/07 01:19:25;;;;;;;2.30;2.10;;;;;;;12.33;100.00;97737.91;4979260;28;20397;-67
2022/08/07 01:21:55;;;;;;;2.17;2.10;;;;;;;12.16;100.00;97751.31;4925373;28;20734;-67
2022/08/07 01:24:24;;;;;;;2.17;2.07;;;;;;;12.19;100.00;97755.47;4984453;28;20208;-65
2022/08/07 01:26:53;;;;;;;2.27;2.03;;;;;;;12.09;100.00;97752.22;4986356;28;20279;-67
2022/08/07 01:29:23;;;;;;;2.20;2.07;;;;;;;12.05;100.00;97757.06;4966083;28;20440;-65
2022/08/07 01:31:58;;;;;;;2.70;2.60;;;;;;;12.01;100.00;97750.47;4989098;28;20200;-67
2022/08/07 01:34:31;;;;;;;2.20;2.10;;;;;;;12.04;100.00;97752.78;4984825;28;20622;-65
2022/08/07 01:37:01;;;;;;;2.50;2.30;;;;;;;11.91;100.00;97748.03;4939524;28;20272;-67
2022/08/07 01:39:30;;;;;;;2.47;2.37;;;;;;;11.82;100.00;97747.25;4979738;28;20255;-65
2022/08/07 01:42:13;;;;;;;2.33;2.17;;;;;;;11.93;100.00;97751.34;4988548;28;20225;-65
2022/08/07 01:45:02;;;;;;;2.10;2.00;;;;;;;11.85;100.00;97748.75;4970898;28;20727;-67
2022/08/07 01:47:30;;;;;;;2.40;2.30;;;;;;;11.93;100.00;97750.50;4983313;28;20484;-67
2022/08/07 01:50:18;;;;;;;2.23;2.13;;;;;;;11.90;100.00;97743.72;4985162;28;20209;-65
2022/08/07 01:52:58;;;;;;;2.40;2.30;;;;;;;11.87;100.00;97742.25;4939071;28;20684;-67
2022/08/07 01:55:29;;;;;;;2.03;2.03;;;;;;;11.77;100.00;97746.97;4982126;28;20666;-66
2022/08/07 01:58:00;;;;;;;2.23;2.13;;;;;;;11.79;100.00;97747.63;4987849;28;20294;-67
2022/08/07 02:00:53;;;;;;;2.17;2.07;;;;;;;11.82;100.00;97733.19;4969186;28;21000;-67
2022/08/07 02:03:41;;;;;;;1.70;1.70;;;;;;;11.76;100.00;97736.53;4982798;28;20201;-67
2022/08/07 02:06:20;;;;;;;1.83;1.83;;;;;;;11.61;100.00;97733.84;4969581;28;20231;-65
2022/08/07 02:09:03;;;;;;;2.40;2.30;;;;;;;11.65;100.00;97730.63;4983205;28;20205;-67
2022/08/07 02:11:33;;;;;;;2.63;2.03;;;;;;;11.66;100.00;97729.63;4956179;28;20228;-67
2022/08/07 02:14:22;;;;;;;2.47;1.80;;;;;;;11.58;100.00;97732.34;4983400;28;20209;-67
2022/08/07 02:17:08;;;;;;;2.43;2.33;;;;;;;11.63;100.00;97724.69;4964545;28;20698;-65
2022/08/07 02:19:39;;;;;;;2.20;2.00;;;;;;;11.44;100.00;97723.31;4986135;28;20675;-67
2022/08/07 02:22:27;;;;;;;3.07;2.87;;;;;;;11.39;100.00;97715.06;4931554;28;21359;-67
2022/08/07 02:24:59;;;;;;;1.70;1.70;;;;;;;11.48;100.00;97716.66;4979802;28;20228;-65
2022/08/07 02:27:28;;;;;;;1.80;1.80;;;;;;;11.32;100.00;97714.94;4984481;28;20586;-67
2022/08/07 02:30:02;;;;;;;2.07;1.97;;;;;;;11.41;100.00;97710.41;4982220;28;20722;-65
2022/08/07 02:32:36;;;;;;;2.67;2.47;;;;;;;11.23;100.00;97713.34;4966283;28;20216;-67
2022/08/07 02:35:25;;;;;;;2.17;2.07;;;;;;;11.31;100.00;97717.78;4984504;28;20441;-67
2022/08/07 02:38:15;;;;;;;1.53;1.53;;;;;;;11.37;100.00;97707.31;4933639;28;20811;-68
2022/08/07 02:40:45;;;;;;;1.67;1.67;;;;;;;11.31;100.00;97717.78;4985219;28;20295;-67
2022/08/07 02:43:15;;;;;;;2.30;2.10;;;;;;;11.36;100.00;97718.06;4981578;28;20316;-66
2022/08/07 02:46:09;;;;;;;1.90;1.80;;;;;;;11.31;100.00;97707.97;4978291;28;20225;-66
2022/08/07 02:48:39;;;;;;;2.10;2.00;;;;;;;11.24;100.00;97720.28;4960087;28;20460;-68
2022/08/07 02:51:24;;;;;;;1.90;1.80;;;;;;;11.21;100.00;97713.53;4983242;28;20448;-67
2022/08/07 02:54:13;;;;;;;1.83;1.73;;;;;;;11.25;100.00;97709.53;4929246;28;20468;-67
2022/08/07 02:56:44;;;;;;;2.10;1.93;;;;;;;11.25;100.00;97708.69;4985566;28;21342;-66
2022/08/07 02:59:18;;;;;;;1.77;1.77;;;;;;;11.22;100.00;97704.56;4983667;28;20641;-67
2022/08/07 03:01:54;;;;;;;2.17;2.07;;;;;;;11.20;100.00;97701.28;4983468;28;20231;-67
2022/08/07 03:04:26;;;;;;;2.10;2.00;;;;;;;11.03;100.00;97702.34;4956415;28;20209;-65
2022/08/07 03:06:59;;;;;;;2.07;1.97;;;;;;;11.04;100.00;97696.88;4987826;28;20919;-67
2022/08/07 03:09:37;;;;;;;2.60;2.50;;;;;;;10.92;100.00;97680.53;4926595;28;20447;-67
2022/08/07 03:12:15;;;;;;;1.90;1.83;;;;;;;10.99;100.00;97699.22;4983431;28;20218;-65
2022/08/07 03:14:51;;;;;;;1.80;1.70;;;;;;;10.94;100.00;97696.25;4954928;28;20240;-68
2022/08/07 03:17:20;;;;;;;2.00;1.90;;;;;;;10.91;100.00;97697.44;4982402;28;20316;-67
2022/08/07 03:19:49;;;;;;;2.10;2.00;;;;;;;10.76;100.00;97692.03;4961576;28;20622;-69
2022/08/07 03:22:22;;;;;;;3.33;2.23;;;;;;;10.75;100.00;97692.19;4955629;28;20378;-68
2022/08/07 03:24:58;;;;;;;1.90;1.80;;;;;;;10.71;100.00;97686.44;4936669;28;20293;-68
2022/08/07 03:27:28;;;;;;;2.60;1.70;;;;;;;10.70;100.00;97688.25;4926164;28;20217;-67
2022/08/07 03:30:17;;;;;;;2.10;2.00;;;;;;;10.59;100.00;97688.63;4957162;28;20319;-69
2022/08/07 03:32:47;;;;;;;2.53;1.70;;;;;;;10.73;100.00;97686.25;4956927;28;21066;-69
2022/08/07 03:35:27;;;;;;;2.20;1.80;;;;;;;10.71;100.00;97694.38;4956929;28;20268;-69
2022/08/07 03:38:16;;;;;;;1.80;1.70;;;;;;;10.73;100.00;97689.75;4988177;28;20255;-68
2022/08/07 03:40:50;;;;;;;2.07;1.90;;;;;;;10.81;100.00;97699.50;4958019;28;20458;-69
2022/08/07 03:43:26;;;;;;;1.60;1.50;;;;;;;10.80;100.00;97701.31;4965011;28;20231;-65
2022/08/07 03:46:03;;;;;;;1.70;1.67;;;;;;;10.72;100.00;97690.75;4951138;28;20312;-68
2022/08/07 03:48:45;;;;;;;1.70;1.70;;;;;;;10.70;100.00;97696.19;4979470;28;20357;-68
2022/08/07 03:51:30;;;;;;;2.20;2.00;;;;;;;10.64;100.00;97688.13;4955033;28;21014;-69
2022/08/07 03:54:15;;;;;;;2.17;2.03;;;;;;;10.69;100.00;97691.91;4987066;28;20260;-66
2022/08/07 03:57:04;;;;;;;1.90;1.80;;;;;;;10.77;100.00;97690.19;4991579;28;20201;-68
2022/08/07 03:59:36;;;;;;;1.80;1.70;;;;;;;10.70;100.00;97679.47;4930628;28;20454;-69
2022/08/07 04:02:13;;;;;;;2.00;1.90;;;;;;;10.71;100.00;97684.59;4981881;28;20466;-65
2022/08/07 04:04:42;;;;;;;2.47;1.80;;;;;;;10.77;100.00;97687.56;4987736;28;20690;-66
2022/08/07 04:07:12;;;;;;;1.73;1.73;;;;;;;10.78;100.00;97682.09;4966075;28;20224;-64
2022/08/07 04:09:45;;;;;;;1.60;1.60;;;;;;;10.75;100.00;97681.59;4954600;28;20285;-65
2022/08/07 04:12:17;;;;;;;1.90;1.80;;;;;;;10.67;100.00;97693.91;4969038;28;20410;-65
2022/08/07 04:14:57;;;;;;;1.80;1.70;;;;;;;10.79;100.00;97693.50;4949091;28;20235;-65
2022/08/07 04:17:27;;;;;;;1.63;1.60;;;;;;;10.82;100.00;97695.84;4959039;28;20333;-66
2022/08/07 04:20:15;;;;;;;1.90;1.80;;;;;;;10.83;100.00;97692.19;4985622;28;20209;-64
2022/08/07 04:22:43;;;;;;;2.10;2.00;;;;;;;10.85;100.00;97688.34;4967287;28;20226;-65
2022/08/07 04:25:29;;;;;;;1.80;1.80;;;;;;;10.84;100.00;97692.00;4989452;28;21088;-66
2022/08/07 04:28:03;;;;;;;1.80;1.70;;;;;;;10.92;100.00;97693.78;4963597;28;20204;-65
2022/08/07 04:30:37;;;;;;;1.53;1.53;;;;;;;11.00;100.00;97693.75;4990838;28;20237;-67
2022/08/07 04:33:24;;;;;;;2.20;2.10;;;;;;;10.99;100.00;97702.69;4953402;28;20209;-66
2022/08/07 04:35:53;;;;;;;3.03;1.87;;;;;;;11.11;100.00;97699.66;4984493;28;20249;-64
2022/08/07 04:38:22;;;;;;;2.10;2.00;;;;;;;11.15;100.00;97698.28;4933200;28;21255;-65
2022/08/07 04:40:50;;;;;;;1.67;1.60;;;;;;;11.15;100.00;97704.44;4990147;28;20197;-64
2022/08/07 04:43:27;;;;;;;2.37;2.27;;;;;;;11.30;100.00;97698.38;4966952;28;20228;-66
2022/08/07 04:46:21;;;;;;;1.90;1.80;;;;;;;11.41;100.00;97702.44;4987834;28;20302;-67
2022/08/07 04:49:06;;;;;;;2.00;1.80;;;;;;;11.37;100.00;97696.69;4927439;28;20213;-62
2022/08/07 04:51:56;;;;;;;2.33;2.23;;;;;;;11.56;100.00;97694.53;4982475;28;20271;-64
2022/08/07 04:54:32;;;;;;;1.87;1.80;;;;;;;11.68;100.00;97714.34;4937613;28;20623;-64
2022/08/07 04:57:07;;;;;;;1.90;1.80;;;;;;;11.79;100.00;97712.28;4960318;28;20303;-66
2022/08/07 04:59:59;;;;;;;1.63;1.53;;;;;;;11.88;100.00;97708.56;4983401;28;20211;-67
2022/08/07 05:02:49;;;;;;;2.13;1.40;;;;;;;12.01;100.00;97707.97;4948628;28;20372;-65
2022/08/07 05:05:22;;;;;;;1.97;1.87;;;;;;;12.07;100.00;97709.91;4986456;28;20241;-61
2022/08/07 05:08:18;;;;;;;2.57;2.37;;;;;;;12.23;100.00;97716.06;4968613;28;20783;-66
2022/08/07 05:11:10;;;;;;;1.70;1.60;;;;;;;12.28;100.00;97713.69;4958056;28;20216;-65
2022/08/07 05:13:55;;;;;;;1.60;1.60;;;;;;;12.41;100.00;97721.88;4951218;28;20905;-65
2022/08/07 05:16:46;;;;;;;1.80;1.60;;;;;;;12.59;100.00;97725.97;4950625;28;21226;-65
2022/08/07 05:19:24;;;;;;;1.70;1.60;;;;;;;12.61;100.00;97723.16;4937471;28;20224;-67
2022/08/07 05:22:12;;;;;;;1.80;1.70;;;;;;;12.78;100.00;97715.81;4986723;28;20209;-67
2022/08/07 05:24:56;;;;;;;1.67;1.60;;;;;;;12.76;100.00;97715.19;4927821;28;20443;-67
2022/08/07 05:27:27;;;;;;;2.13;1.90;;;;;;;12.90;100.00;97716.97;4978296;28;20208;-66
2022/08/07 05:30:15;;;;;;;1.70;1.60;;;;;;;13.05;100.00;97716.13;4959207;28;20251;-69
2022/08/07 05:32:58;;;;;;;1.80;1.70;;;;;;;13.15;100.00;97720.13;4988982;28;20214;-70
2022/08/07 05:35:32;;;;;;;1.73;1.63;;;;;;;13.25;100.00;97717.19;4930872;28;22886;-67
2022/08/07 05:38:09;;;;;;;1.97;1.87;;;;;;;13.35;100.00;97724.88;4943741;28;20571;-69
2022/08/07 05:40:38;;;;;;;2.17;2.07;;;;;;;13.39;100.00;97719.97;4988503;28;20456;-64
2022/08/07 05:43:18;;;;;;;3.40;1.37;;;;;;;13.42;100.00;97715.13;4958060;28;20717;-68
2022/08/07 05:46:07;;;;;;;1.87;1.60;;;;;;;13.59;100.00;97713.06;4985267;28;20476;-68
2022/08/07 05:48:35;;;;;;;1.87;1.80;;;;;;;13.67;100.00;97716.59;4954414;28;21128;-64
2022/08/07 05:51:26;;;;;;;1.60;1.50;;;;;;;13.74;100.00;97706.81;4926737;28;20354;-66
2022/08/07 05:54:00;;;;;;;1.77;1.67;;;;;;;13.97;100.00;97713.78;4901537;28;21054;-66
2022/08/07 05:56:52;;;;;;;1.63;1.53;;;;;;;14.03;100.00;97705.03;4952841;28;20247;-64
2022/08/07 05:59:21;;;;;;;2.10;2.00;;;;;;;14.35;100.00;97716.13;4977512;28;20379;-65
2022/08/07 06:01:50;;;;;;;3.13;1.50;;;;;;;14.38;100.00;97721.06;4987942;28;20235;-67
2022/08/07 06:04:21;;;;;;;3.10;2.00;;;;;;;14.52;100.00;97719.28;4982146;28;20240;-67
2022/08/07 06:07:02;;;;;;;1.77;1.67;;;;;;;14.61;100.00;97722.63;4934449;28;20216;-65
2022/08/07 06:09:32;;;;;;;2.07;1.57;;;;;;;14.68;100.00;97718.16;4987206;28;20209;-65
2022/08/07 06:12:22;;;;;;;2.03;1.93;;;;;;;14.98;100.00;97714.41;4962707;28;20209;-65
2022/08/07 06:15:01;;;;;;;1.80;1.40;;;;;;;15.25;100.00;97712.66;4984806;28;20312;-68
2022/08/07 06:17:35;;;;;;;1.63;1.53;;;;;;;15.55;100.00;97719.53;4950071;28;20236;-67
2022/08/07 06:20:19;;;;;;;1.87;1.77;;;;;;;15.80;100.00;97719.75;4987425;28;20201;-67
2022/08/07 06:23:10;;;;;;;1.53;1.43;;;;;;;15.93;100.00;97713.63;4927839;28;20387;-66
2022/08/07 06:26:00;;;;;;;1.70;1.70;;;;;;;16.02;100.00;97709.72;4984017;28;20839;-68
2022/08/07 06:28:29;;;;;;;1.90;1.80;;;;;;;16.03;100.00;97705.19;4956694;28;20292;-69
2022/08/07 06:30:59;;;;;;;1.60;1.60;;;;;;;16.06;100.00;97699.41;4983214;28;20470;-71
2022/08/07 06:33:33;;;;;;;2.10;1.90;;;;;;;16.29;100.00;97696.34;4983198;28;20714;-64
2022/08/07 06:36:03;;;;;;;2.93;2.30;;;;;;;16.39;100.00;97708.44;4965992;28;20290;-66
2022/08/07 06:38:45;;;;;;;2.70;1.47;;;;;;;16.63;100.00;97709.63;4942839;28;20223;-67
2022/08/07 06:41:30;;;;;;;2.00;1.50;;;;;;;16.85;97.53;97709.34;4988368;28;20216;-68
2022/08/07 06:44:19;;;;;;;2.63;1.90;;;;;;;17.01;96.09;97714.25;4958858;28;20235;-67
2022/08/07 06:46:49;;;;;;;2.27;2.07;;;;;;;17.03;93.89;97706.84;4962061;28;20260;-67
2022/08/07 06:49:38;;;;;;;2.53;2.03;;;;;;;17.20;91.27;97711.69;4983971;28;20227;-66
2022/08/07 06:52:30;;;;;;;1.70;1.60;;;;;;;17.10;91.21;97706.81;4926257;28;20223;-67
2022/08/07 06:55:11;;;;;;;16.30;3.40;;;;;;;17.27;97.54;97706.31;4980213;28;20830;-68
2022/08/07 06:58:03;;;;;;;1.87;1.80;;;;;;;17.33;92.60;97717.00;4981180;28;20209;-68
2022/08/07 07:00:41;;;;;;;1.40;1.30;;;;;;;17.53;93.97;97709.88;4962685;28;20248;-67
2022/08/07 07:03:14;;;;;;;1.90;1.80;;;;;;;17.57;89.88;97711.88;4986700;28;20212;-68
2022/08/07 07:05:46;;;;;;;2.40;2.20;;;;;;;17.83;86.33;97703.91;4982130;28;20287;-68
2022/08/07 07:08:34;;;;;;;1.70;1.60;;;;;;;18.07;88.14;97704.97;4943462;28;20218;-68
2022/08/07 07:11:16;;;;;;;1.67;1.57;;;;;;;18.05;82.82;97709.72;4983533;28;20894;-67
2022/08/07 07:14:08;;;;;;;2.60;1.80;;;;;;;17.93;80.62;97707.72;4964556;28;20220;-63
2022/08/07 07:16:44;;;;;;;2.13;1.83;;;;;;;17.84;84.92;97706.34;4981795;28;20220;-68
2022/08/07 07:19:27;;;;;;;2.13;2.00;;;;;;;18.01;77.56;97701.28;4986205;28;20204;-67
2022/08/07 07:22:19;;;;;;;1.80;1.47;;;;;;;18.22;79.97;97705.44;4986476;28;20209;-68
2022/08/07 07:25:09;;;;;;;1.50;1.40;;;;;;;18.37;73.37;97698.91;4970283;28;20244;-66
2022/08/07 07:28:11;;;;;;;2.93;1.40;;;;;;;18.63;74.56;97699.66;4982887;28;20212;-67
2022/08/07 07:31:02;;;;;;;2.00;1.37;;;;;;;18.50;71.43;97688.03;4966824;28;20951;-68
2022/08/07 07:33:36;;;;;;;2.30;2.17;;;;;;;18.73;71.12;97686.53;4987421;28;20201;-69
2022/08/07 07:36:09;;;;;;;1.60;1.60;;;;;;;18.74;69.01;97690.84;4986145;28;21148;-69
2022/08/07 07:38:43;;;;;;;1.47;1.37;;;;;;;18.79;66.59;97696.41;4961984;28;20204;-65
2022/08/07 07:41:18;;;;;;;3.33;1.57;;;;;;;18.97;67.58;97680.50;4935692;28;20217;-67
2022/08/07 07:44:01;;;;;;;4.73;1.43;;;;;;;19.09;64.78;97689.44;4988589;28;20221;-68
2022/08/07 07:46:50;;;;;;;3.77;1.50;;;;;;;18.85;62.95;97688.50;4957640;28;20257;-70
2022/08/07 07:49:28;;;;;;;1.33;1.30;;;;;;;18.70;66.28;97686.19;4985030;28;20637;-67
2022/08/07 07:52:18;;;;;;;1.53;1.43;;;;;;;18.80;66.83;97684.63;4965489;28;20213;-68
2022/08/07 07:54:50;;;;;;;3.30;3.10;;;;;;;18.98;66.01;97677.59;4988004;28;20213;-68
2022/08/07 07:57:22;;;;;;;2.97;0.80;;;;;;;18.89;61.83;97681.63;4942377;28;20212;-68
2022/08/07 08:00:15;;;;;;;2.93;1.43;;;;;;;18.96;62.49;97687.72;4984579;28;20648;-69
2022/08/07 08:02:59;;;;;;;1.17;1.13;;;;;;;19.14;58.71;97678.84;4991625;28;20729;-69
2022/08/07 08:05:36;;;;;;;1.67;1.57;;;;;;;19.04;57.03;97678.56;4967809;28;20235;-65
2022/08/07 08:08:23;;;;;;;1.40;1.30;;;;;;;19.06;58.10;97671.91;4987841;28;20209;-65
2022/08/07 08:11:04;;;;;;;1.77;1.20;;;;;;;18.89;57.09;97673.56;4987107;28;20210;-69
2022/08/07 08:13:36;;;;;;;2.07;1.47;;;;;;;19.02;56.36;97672.63;4948833;28;20240;-67
2022/08/07 08:16:28;;;;;;;2.70;1.23;;;;;;;19.20;55.91;97674.44;4981524;28;20233;-70
2022/08/07 08:18:58;;;;;;;1.50;1.40;;;;;;;19.44;52.18;97671.81;4990107;28;20204;-69
2022/08/07 08:27:45;;;;;;;1.20;1.10;;;;;;;19.74;52.45;97650.28;4946823;28;20217;-68
2022/08/07 08:30:31;;;;;;;2.97;2.77;;;;;;;20.00;49.48;97655.47;4982400;28;20502;-66
2022/08/07 08:33:06;;;;;;;1.30;1.30;;;;;;;20.14;47.89;97661.44;4982004;28;20307;-69
2022/08/07 08:35:44;;;;;;;1.10;1.10;;;;;;;20.29;48.17;97663.66;4983070;28;20305;-69
2022/08/07 08:38:21;;;;;;;1.33;1.27;;;;;;;20.29;46.48;97651.00;4960574;28;20839;-67
2022/08/07 08:41:01;;;;;;;1.20;1.07;;;;;;;20.22;48.97;97658.38;4990701;28;20706;-65
2022/08/07 08:43:35;;;;;;;2.13;1.23;;;;;;;20.12;47.96;97660.84;4942959;28;21215;-67
2022/08/07 08:46:32;;;;;;;0.93;0.93;;;;;;;20.21;46.95;97657.56;4981799;28;20469;-65
2022/08/07 08:49:10;;;;;;;1.00;1.00;;;;;;;20.43;48.44;97659.66;4987447;28;20220;-65
2022/08/07 08:51:42;;;;;;;1.35;1.20;;;;;;;20.38;47.51;97659.53;4988288;28;20454;-69
2022/08/07 08:54:34;;;;;;;1.10;1.00;;;;;;;20.36;46.96;97646.31;4968746;28;20320;-64
2022/08/07 08:57:06;;;;;;;1.27;0.93;;;;;;;20.31;45.04;97645.41;4970275;28;20275;-63
2022/08/07 08:59:46;;;;;;;1.60;1.17;;;;;;;20.34;45.08;97642.25;4935639;28;20225;-66
2022/08/07 09:02:23;;;;;;;0.97;0.80;;;;;;;20.36;44.21;97645.50;4963690;28;20603;-62
2022/08/07 09:05:22;;;;;;;1.00;1.00;;;;;;;20.30;45.37;97643.78;4985856;28;20229;-66
2022/08/07 09:08:18;;;;;;;1.00;1.00;;;;;;;20.44;44.62;97653.22;4980733;28;20204;-64
2022/08/07 09:11:02;;;;;;;0.93;0.93;;;;;;;20.45;43.30;97641.41;4987958;28;20702;-65
2022/08/07 09:13:42;;;;;;;1.13;1.13;;;;;;;20.49;43.13;97645.25;4988127;28;20259;-65
2022/08/07 09:16:18;;;;;;;1.10;1.00;;;;;;;20.60;44.69;97643.59;4942564;28;20236;-63
2022/08/07 09:19:07;;;;;;;0.70;0.70;;;;;;;20.66;43.15;97639.16;4986381;28;20213;-63
2022/08/07 09:22:07;;;;;;;0.83;0.83;;;;;;;20.74;43.17;97646.00;4988354;28;20225;-64
2022/08/07 09:25:01;;;;;;;0.80;0.80;;;;;;;21.00;41.91;97635.78;4966384;28;20322;-65
2022/08/07 09:27:47;;;;;;;0.93;0.93;;;;;;;21.28;42.35;97648.41;4992233;28;20200;-65
2022/08/07 09:30:35;;;;;;;3.50;1.47;;;;;;;21.25;42.68;97638.13;4985275;28;20477;-65
2022/08/07 09:33:09;;;;;;;1.10;1.10;;;;;;;21.19;41.90;97639.88;4944484;28;20914;-64
2022/08/07 09:35:56;;;;;;;1.20;1.10;;;;;;;21.25;41.95;97630.88;4987750;28;20221;-65
2022/08/07 09:38:42;;;;;;;0.73;0.73;;;;;;;21.45;40.77;97634.16;4986833;28;20465;-66
2022/08/07 09:41:24;;;;;;;1.47;0.87;;;;;;;21.38;40.22;97618.13;4967054;28;20239;-63
2022/08/07 09:44:07;;;;;;;1.10;1.03;;;;;;;21.23;41.49;97634.84;4988034;28;20205;-65
2022/08/07 09:47:03;;;;;;;0.93;0.93;;;;;;;21.23;41.55;97635.69;4948999;28;20628;-67
2022/08/07 09:49:58;;;;;;;1.03;1.03;;;;;;;21.28;41.07;97631.44;4916183;28;20290;-67
2022/08/07 09:52:48;;;;;;;3.40;1.93;;;;;;;21.19;39.50;97623.72;4985593;28;20296;-66
2022/08/07 09:55:22;;;;;;;0.80;0.80;;;;;;;21.28;40.39;97621.47;4952133;28;20243;-66
2022/08/07 09:58:16;;;;;;;0.97;0.87;;;;;;;21.28;40.29;97623.34;4985833;28;20197;-66
2022/08/07 10:00:59;;;;;;;0.70;0.70;;;;;;;21.28;40.43;97624.16;4985167;28;20201;-64
2022/08/07 10:03:47;;;;;;;1.10;1.00;;;;;;;21.19;39.60;97622.91;4947545;28;20213;-65
2022/08/07 10:06:49;;;;;;;1.00;1.00;;;;;;;21.05;40.15;97612.44;4984919;28;21031;-65
2022/08/07 10:09:43;;;;;;;1.30;1.27;;;;;;;21.31;41.20;97620.97;4989229;28;20205;-65
2022/08/07 10:12:44;;;;;;;1.10;1.10;;;;;;;21.36;40.30;97609.47;4979090;28;20208;-67
2022/08/07 10:15:47;;;;;;;0.70;0.70;;;;;;;21.48;40.71;97602.13;4989562;28;20243;-65
2022/08/07 10:18:36;;;;;;;1.40;1.40;;;;;;;21.73;39.30;97592.00;4929987;28;20626;-66
2022/08/07 10:21:18;;;;;;;1.13;1.10;;;;;;;21.86;39.25;97598.94;4986270;28;21345;-67
2022/08/07 10:24:23;;;;;;;1.33;1.10;;;;;;;22.11;40.36;97582.31;4987955;28;20212;-66
2022/08/07 10:27:03;;;;;;;2.20;1.17;;;;;;;21.92;39.26;97588.00;4957833;28;20228;-62
2022/08/07 10:29:52;;;;;;;1.43;0.93;;;;;;;22.11;38.85;97585.84;4988517;28;20639;-65
2022/08/07 10:32:52;;;;;;;0.90;0.90;;;;;;;22.11;38.23;97585.84;4987156;28;20212;-66
2022/08/07 10:35:29;;;;;;;1.00;1.00;;;;;;;22.19;38.71;97579.19;4927821;28;20221;-65
2022/08/07 10:38:32;;;;;;;1.60;0.90;;;;;;;21.98;37.78;97570.81;4986451;28;20382;-66
2022/08/07 10:41:22;;;;;;;0.70;0.70;;;;;;;21.92;38.33;97579.06;4967499;28;20209;-66
2022/08/07 10:44:16;;;;;;;2.03;1.20;;;;;;;21.93;39.40;97581.53;4984000;28;20288;-65
2022/08/07 10:47:02;;;;;;;1.70;1.13;;;;;;;22.10;40.48;97568.00;4986113;28;20229;-66
2022/08/07 10:49:41;;;;;;;1.47;0.90;;;;;;;22.38;40.98;97565.38;4940939;28;20212;-65
2022/08/07 10:52:22;;;;;;;0.97;0.97;;;;;;;22.44;40.25;97567.06;4987490;28;20298;-66
2022/08/07 10:55:10;;;;;;;0.80;0.80;;;;;;;22.59;39.61;97560.28;4987633;28;20248;-65
2022/08/07 10:58:05;;;;;;;1.13;1.10;;;;;;;22.85;39.28;97555.94;4955993;28;20815;-66
2022/08/07 11:00:46;;;;;;;0.97;0.97;;;;;;;22.86;39.15;97564.84;4987894;28;20221;-66
2022/08/07 11:03:33;;;;;;;1.20;1.20;;;;;;;22.76;38.43;97555.59;4991762;28;20205;-65
2022/08/07 11:06:22;;;;;;;1.40;1.20;;;;;;;22.85;38.19;97542.44;4948947;28;20970;-65
2022/08/07 11:08:58;;;;;;;0.90;0.90;;;;;;;22.65;36.75;97551.94;4989293;28;20212;-66
2022/08/07 11:11:32;;;;;;;0.90;0.90;;;;;;;22.60;37.85;97551.09;4991009;28;20205;-66
2022/08/07 11:14:05;;;;;;;2.10;2.00;;;;;;;22.80;37.15;97551.31;4972881;28;20857;-66
2022/08/07 11:16:58;;;;;;;1.43;0.80;;;;;;;22.66;34.61;97544.69;4987543;28;20421;-67
2022/08/07 11:19:38;;;;;;;0.93;0.87;;;;;;;22.58;36.16;97539.75;4992192;28;20236;-66
2022/08/07 11:22:11;;;;;;;1.97;0.90;;;;;;;22.49;36.12;97534.75;4947770;28;20484;-66
2022/08/07 11:25:05;;;;;;;0.90;0.90;;;;;;;22.63;36.42;97537.09;4989530;28;20789;-65
2022/08/07 11:27:45;;;;;;;1.83;1.07;;;;;;;22.68;39.03;97539.84;4975098;28;20367;-66
2022/08/07 11:30:41;;;;;;;0.77;0.77;;;;;;;22.38;37.02;97524.91;4977670;28;20236;-66
2022/08/07 11:33:19;;;;;;;0.90;0.90;;;;;;;22.49;36.79;97525.88;4991561;28;20388;-69
2022/08/07 11:36:16;;;;;;;1.60;0.97;;;;;;;22.82;36.57;97530.25;4950502;28;20233;-67
2022/08/07 11:39:06;;;;;;;0.90;0.90;;;;;;;22.98;37.48;97516.91;4988396;28;20300;-66
2022/08/07 11:41:42;;;;;;;0.90;0.90;;;;;;;23.05;36.15;97517.50;4990318;28;20197;-61
2022/08/07 11:44:38;;;;;;;1.57;1.13;;;;;;;23.09;35.13;97504.28;4990367;28;20210;-62
2022/08/07 11:47:32;;;;;;;1.17;1.07;;;;;;;23.03;34.56;97508.00;4991630;28;20233;-66
2022/08/07 11:50:28;;;;;;;1.40;0.77;;;;;;;23.37;35.77;97507.78;4988703;28;20201;-67
2022/08/07 11:53:16;;;;;;;1.40;0.83;;;;;;;23.52;35.47;97512.47;4962464;28;20410;-66
2022/08/07 11:56:01;;;;;;;1.50;1.30;;;;;;;23.34;34.65;97501.00;4939276;28;20249;-65
2022/08/07 11:58:57;;;;;;;0.70;0.70;;;;;;;23.17;35.42;97497.59;4975706;28;20627;-65
2022/08/07 12:01:46;;;;;;;1.07;1.07;;;;;;;22.93;34.67;97506.84;4989600;28;20263;-66
2022/08/07 12:04:43;;;;;;;1.33;1.20;;;;;;;22.97;34.80;97507.16;4974232;28;20205;-65
2022/08/07 12:07:16;;;;;;;1.00;1.00;;;;;;;22.94;34.89;97500.38;4988323;28;20725;-66
2022/08/07 12:10:09;;;;;;;1.30;1.20;;;;;;;23.39;34.07;97506.44;4953101;28;20223;-63
2022/08/07 12:12:45;;;;;;;2.20;1.00;;;;;;;23.27;33.76;97497.69;4988787;28;20240;-66
2022/08/07 12:15:16;;;;;;;0.90;0.90;;;;;;;23.91;33.09;97501.34;4985162;28;20283;-66
2022/08/07 12:18:09;;;;;;;0.80;0.80;;;;;;;23.95;32.92;97502.44;4977152;28;20227;-63
2022/08/07 12:20:45;;;;;;;0.83;0.83;;;;;;;23.91;33.40;97495.13;4993607;28;20399;-66
2022/08/07 12:23:39;;;;;;;1.57;1.00;;;;;;;24.24;33.46;97495.81;4986969;28;20450;-66
2022/08/07 12:26:33;;;;;;;2.20;1.30;;;;;;;24.56;32.10;97484.00;4927288;28;20504;-65
2022/08/07 12:29:19;;;;;;;0.97;0.97;;;;;;;24.93;31.44;97483.00;4986738;28;20617;-63
2022/08/07 12:32:12;;;;;;;1.60;0.93;;;;;;;25.39;31.33;97474.03;4976587;28;20210;-63
2022/08/07 12:34:43;;;;;;;0.93;0.93;;;;;;;25.33;32.32;97480.53;4948513;28;20208;-64
2022/08/07 12:37:20;;;;;;;1.07;0.70;;;;;;;25.99;31.50;97480.69;4962287;28;20202;-66
2022/08/07 12:39:57;;;;;;;1.10;1.10;;;;;;;24.85;30.86;97476.22;4951848;28;20216;-65